Pagrindinis puslapis
METAR-TAF:

METAR-TAF

Oro uostai :

Šidziadžuangas, Kinija

platuma: 38-16-51N, ilguma: 114-41-48E, Aukštis: 233 m

Dabartinis oras

Ataskaita buvo paskelbta 1 valandą ir 13 minutes, ne 15:00 UTC
Vėjas 6 kt iš Rytų/Šiaurės Rytų, svyruoja nuo Šiaurės Rytų ir Rytų
Temperatūra 22°C
Drėgmė 53%
Slėgis 1009 hPa
Matomumas 10 km arba daugiau
nėra debesų žemiau 1500 m ir nėra kamuolinių lietaus debesų

METAR: ZBSJ 051500Z 07003MPS 040V100 CAVOK 22/12 Q1009 NOSIG

Laikas: 00:13 (16:13 UTC)

Prognozė

Ataskaita buvo paskelbta 6 valandos ir 59 minutes, ne 09:14 UTC
Prognozė galioja nuo 05 metu 12 UTC su 06 metu 12 UTC
Vėjas 8 kt iš Rytų/Šiaurės Rytų
Matomumas: 6000 m

TAF: ZBSJ 050914Z 0512/0612 06004MPS 6000 NSC TX33/0607Z TN19/0521Z

Orai ataskaitas ir orų prognozės (METAR, TAF).

turimą stotys yra geltonos ir raudonos taškus žemėlapyje.

Perkelti pele per norėdami pamatyti stoties vardą.

Tada spustelėkite, norėdami matyti oro stebėjimo ir prognozės.

Norėdami pakeisti žemėlapį: spustelėkite ant žalios mygtukų su juodo kryžiaus žemyn,; žalią mygtuką su brūkšneliu, jei norite nutolinti; arba žalių rodyklių gretimoms žemėlapius.


METAR-TAF: